North Palm Springs, CA (92258)

10:07 AM PDT on September 01, 2015 (GMT -0700)
Four Seasons 2 | | Change Station
CLOSE
Current Station
Personal Weather Station
Location: Palm Springs, CA
Elevation: 548 ft
Nearby Weather Stations

Elev 548 ft 33.87 °N, 116.53 °W | Updated 9 seconds ago

Partly Cloudy
Partly Cloudy
89.6 °F
Feels Like 86 °F
N
3.6
Wind Variable Wind from East
Gusts 4.9 mph

Today
High -- | Low -- °F
--% Chance of Precip.
Yesterday
High -- | Low -- °F
Precip. -- in
6:19 AM 7:12 PM
Waning Gibbous, 87% visible
Pressure 29.88 in
Visibility 10.0 miles
Clouds Scattered Clouds 10000 ft
Heat Index 86 °F
Dew Point 42 °F
Humidity 19%
Rainfall 0.00 in
Snow Depth Not available.
UV 4.0 out of 12
Pollen 6.70 out of 12
Air Quality Not available.
Flu Activity Not available.
METAR KPSP 011653Z 34003KT 10SM SCT100 33/08 A2989 RMK AO2 SLP116 T03280083
Pressure 29.88 in
Visibility 10.0 miles
Clouds Scattered Clouds 10000 ft
Heat Index 86 °F
Dew Point 42 °F
Humidity 19%
Rainfall 0.00 in
Snow Depth Not available.
UV 4.0 out of 12
Pollen 6.70 out of 12
Air Quality Not available.
Flu Activity Not available.
METAR KPSP 011653Z 34003KT 10SM SCT100 33/08 A2989 RMK AO2 SLP116 T03280083

10-Day Weather Forecast

×

Almanac

Astronomy

Sep. 01, 2015 Rise Set
Actual Time
Civil Twilight
Nautical Twilight
Astronomical Twilight
Moon
Length of Visible Light
Length of Day
Tomorrow will be .
, % of the Moon is Illuminated

Today's Extremes

State Highs State Lows

Community

WunderPhotos

Upload Photos

1,851,568 photos uploaded!

WunderBlogs® & News

Nearby

Air Quality

  Air Quality AQ Index Pollutant
Not available.

Snow Depth

Station Depth Elevation

Earthquake Activity

City Distance Mag. Time & Date
Minimum magnitude displayed is 2.5.

Coastal Water Temperatures

Place Temperature

Stations

Nearby Weather Stations

Station Location Temp. Windchill Dew Point Humidity Wind Precip. Elev Updated Type